Huvudsida
METAR-TAF:

METAR-TAF

Flygplatser :

Nouakchotts flygplats

Nouakchott, Mauretanien

latitud: 18-18-36N, longitud: 015-58-11W, höjd: 3 m

Aktuellt väderrapport

Denna rapport gjordes för 26 minuter sedan, klockan 09:30 UTC
Vind 12 kt från nord
Temperatur 26°C
Fuktighet 65%
Tryck 1011 hPa
Sikt: 8000 m

METAR: GQNO 190930Z 35012KT 8000 NSC 26/19 Q1011 NOSIG

Tid: 09:56 (09:56 UTC)

Väderprognos

Denna rapport gjordes för 4 timmar och 56 minuter sedan, klockan 05:00 UTC
Prognos gäller från 19 kl. 06 UTC till 20 kl. 12 UTC
Vind 13 kt från nordväst
Sikt: 8000 m
Sannolikhet 40% :
Temporärt
från 19 kl. 08 UTC till 19 kl. 11 UTC
Vind 3 kt från nordväst
Blir
från 20 kl. 08 UTC till 20 kl. 10 UTC
Vind 6 kt från sydväst

TAF: GQNO 190500Z 1906/2012 32013KT 8000 NSC PROB40 TEMPO 1908/1911 32003KT BECMG 2008/2010 22006KT

Aktuella väderrapporter och prognoser från 4000 flygplatser (METAR- och TAF-rapporter).

De tillgängliga stationerna syns som gula och röda prickar på kartan.

För musen över prickarna för att se namnen på stationerna.

Klicka sedan för att få väderrapporter och prognoser.

För att ändra kartan: Klicka på de gröna knapparna med ett svart kors på för att zooma in; den gröna knappen med ett streck på för att zooma ut; eller på de gröna pilarna för angränsande kartor.


METAR-TAF: